createdAt,value
2023-05-25T00:02:15.483Z,99344.54
2023-05-25T00:04:43.255Z,99345.40
2023-05-25T00:07:11.103Z,99349.70
2023-05-25T00:09:41.735Z,99347.81
2023-05-25T00:12:09.559Z,99344.90
2023-05-25T00:14:37.063Z,99345.02
2023-05-25T00:17:06.060Z,99347.04
2023-05-25T00:19:34.285Z,99347.62
2023-05-25T00:22:04.696Z,99342.75
2023-05-25T00:24:32.300Z,99336.37
2023-05-25T00:26:59.897Z,99328.70
2023-05-25T00:29:27.475Z,99327.95
2023-05-25T00:31:55.233Z,99330.40
2023-05-25T00:34:22.888Z,99333.98
2023-05-25T00:36:50.615Z,99335.80
2023-05-25T00:39:19.093Z,99340.58
2023-05-25T00:41:46.815Z,99343.14
2023-05-25T00:44:15.089Z,99341.23
2023-05-25T00:46:44.909Z,99337.98
2023-05-25T00:49:14.061Z,99336.34
2023-05-25T00:51:42.151Z,99337.59
2023-05-25T00:54:09.751Z,99339.71
2023-05-25T00:56:38.655Z,99339.94
2023-05-25T00:59:07.706Z,99337.73
2023-05-25T01:01:40.427Z,99336.02
2023-05-25T01:04:09.847Z,99335.10
2023-05-25T01:06:41.006Z,99332.03
2023-05-25T01:09:08.709Z,99331.48
2023-05-25T01:11:37.199Z,99331.55
2023-05-25T01:14:04.656Z,99327.30
2023-05-25T01:16:34.250Z,99332.31
2023-05-25T01:19:03.040Z,99325.31
2023-05-25T01:21:56.443Z,99328.43
2023-05-25T01:24:34.758Z,99325.44
2023-05-25T01:27:08.366Z,99321.83
2023-05-25T01:29:36.353Z,99319.50
2023-05-25T01:32:04.780Z,99318.35
2023-05-25T01:34:35.153Z,99321.23
2023-05-25T01:37:02.661Z,99315.29
2023-05-25T01:39:30.211Z,99315.63
2023-05-25T01:41:57.669Z,99320.48
2023-05-25T01:44:25.677Z,99318.45
2023-05-25T01:46:56.259Z,99319.08
2023-05-25T01:49:36.691Z,99319.27
2023-05-25T01:52:08.083Z,99325.63
2023-05-25T01:54:40.993Z,99327.41
2023-05-25T01:57:11.689Z,99329.52
2023-05-25T01:59:39.424Z,99332.61
2023-05-25T02:02:07.716Z,99337.45
2023-05-25T02:04:35.641Z,99335.77
2023-05-25T02:07:05.192Z,99333.33
2023-05-25T02:09:32.679Z,99337.88
2023-05-25T02:12:01.549Z,99342.00
2023-05-25T02:14:31.592Z,99340.73
2023-05-25T02:17:02.129Z,99338.41
2023-05-25T02:19:30.000Z,99338.81
2023-05-25T02:21:57.536Z,99338.33
2023-05-25T02:24:26.705Z,99340.45
2023-05-25T02:26:54.218Z,99341.70
2023-05-25T02:29:21.884Z,99344.49
2023-05-25T02:31:49.577Z,99341.59
2023-05-25T02:34:17.611Z,99345.60
2023-05-25T02:36:47.929Z,99342.14
2023-05-25T02:39:15.434Z,99341.42
2023-05-25T02:41:43.550Z,99343.94
2023-05-25T02:44:12.622Z,99344.75
2023-05-25T02:46:40.122Z,99345.14
2023-05-25T02:49:07.800Z,99350.29
2023-05-25T02:51:36.254Z,99352.09
2023-05-25T02:54:03.812Z,99349.98
2023-05-25T02:56:32.608Z,99351.81
2023-05-25T02:59:00.540Z,99354.73
2023-05-25T03:01:35.723Z,99352.91
2023-05-25T03:04:04.819Z,99360.91
2023-05-25T03:06:36.747Z,99364.23
2023-05-25T03:09:10.263Z,99354.63
2023-05-25T03:11:38.963Z,99346.75
2023-05-25T03:14:06.606Z,99353.17
2023-05-25T03:16:36.661Z,99354.79
2023-05-25T03:19:08.578Z,99350.39
2023-05-25T03:21:38.484Z,99355.36
2023-05-25T03:24:06.864Z,99366.40
2023-05-25T03:26:37.130Z,99368.21
2023-05-25T03:29:07.148Z,99370.48
2023-05-25T03:31:35.034Z,99371.48
2023-05-25T03:34:04.750Z,99364.53
2023-05-25T03:36:34.198Z,99370.22
2023-05-25T03:39:01.826Z,99362.80
2023-05-25T03:41:29.918Z,99362.93
2023-05-25T03:43:58.786Z,99369.35
2023-05-25T03:46:26.875Z,99374.42
2023-05-25T03:48:56.569Z,99372.47
2023-05-25T03:51:24.159Z,99372.86
2023-05-25T03:53:51.726Z,99375.20
2023-05-25T03:56:19.286Z,99377.20
2023-05-25T03:58:48.184Z,99383.34
2023-05-25T04:01:16.850Z,99386.04
2023-05-25T04:03:44.598Z,99389.95
2023-05-25T04:06:12.413Z,99386.83
2023-05-25T04:08:41.230Z,99385.77
2023-05-25T04:11:08.947Z,99386.95
2023-05-25T04:13:36.849Z,99389.91
2023-05-25T04:16:10.402Z,99396.35
2023-05-25T04:18:38.297Z,99396.52
2023-05-25T04:21:05.930Z,99394.63
2023-05-25T04:23:36.732Z,99386.71
2023-05-25T04:26:06.328Z,99388.02
2023-05-25T04:28:33.960Z,99388.53
2023-05-25T04:31:27.289Z,99389.14
2023-05-25T04:34:15.256Z,99387.97
2023-05-25T04:36:56.881Z,99392.45
2023-05-25T04:39:24.621Z,99398.93
2023-05-25T04:41:57.376Z,99409.13
2023-05-25T04:44:25.838Z,99408.25
2023-05-25T04:46:55.756Z,99414.79
2023-05-25T04:49:32.376Z,99415.23
2023-05-25T04:52:00.898Z,99414.48
2023-05-25T04:54:30.197Z,99412.42
2023-05-25T04:57:00.186Z,99412.56
2023-05-25T04:59:27.877Z,99417.41
2023-05-25T05:01:55.534Z,99415.05
2023-05-25T05:04:23.173Z,99420.05
2023-05-25T05:06:51.562Z,99424.70
2023-05-25T05:09:21.340Z,99423.48
2023-05-25T05:11:49.581Z,99423.58
2023-05-25T05:14:19.460Z,99432.54
2023-05-25T05:16:48.378Z,99431.70
2023-05-25T05:19:16.348Z,99429.81
2023-05-25T05:21:44.218Z,99433.46
2023-05-25T05:24:12.228Z,99434.54
2023-05-25T05:26:55.391Z,99437.52
2023-05-25T05:29:29.089Z,99438.66
2023-05-25T05:31:56.784Z,99438.89
2023-05-25T05:34:25.705Z,99439.56
2023-05-25T05:36:57.893Z,99440.48
2023-05-25T05:39:28.145Z,99441.55
2023-05-25T05:41:56.122Z,99445.69
2023-05-25T05:44:27.098Z,99445.48
2023-05-25T05:47:01.009Z,99446.52
2023-05-25T05:49:29.693Z,99448.86
2023-05-25T05:51:58.383Z,99446.99
2023-05-25T05:54:28.126Z,99449.77
2023-05-25T05:56:57.596Z,99448.08
2023-05-25T05:59:25.076Z,99437.73
2023-05-25T06:01:53.723Z,99438.43
2023-05-25T06:04:25.384Z,99443.85
2023-05-25T06:06:52.918Z,99439.95
2023-05-25T06:09:20.495Z,99441.64
2023-05-25T06:11:48.567Z,99445.10
2023-05-25T06:14:16.880Z,99444.75
2023-05-25T06:16:46.169Z,99444.55
2023-05-25T06:19:14.647Z,99449.34
2023-05-25T06:21:42.714Z,99447.28
2023-05-25T06:24:10.358Z,99448.17
2023-05-25T06:26:37.905Z,99451.60
2023-05-25T06:29:05.458Z,99449.85
2023-05-25T06:31:33.109Z,99459.08
2023-05-25T06:34:00.799Z,99464.42
2023-05-25T06:36:28.445Z,99463.09
2023-05-25T06:38:56.480Z,99469.29
2023-05-25T06:41:24.178Z,99471.66
2023-05-25T06:43:51.917Z,99470.48
2023-05-25T06:46:32.976Z,99467.63
2023-05-25T06:49:01.381Z,99469.05
2023-05-25T06:51:29.083Z,99464.40
2023-05-25T06:53:57.039Z,99472.17
2023-05-25T06:56:24.681Z,99463.33
2023-05-25T06:58:52.261Z,99461.86
2023-05-25T07:01:19.833Z,99468.52
2023-05-25T07:03:47.411Z,99471.11
2023-05-25T07:06:17.127Z,99468.33
2023-05-25T07:08:44.656Z,99473.36
2023-05-25T07:11:14.273Z,99474.58
2023-05-25T07:13:41.974Z,99476.42
2023-05-25T07:16:10.082Z,99475.14
2023-05-25T07:18:41.304Z,99471.55
2023-05-25T07:21:10.227Z,99473.59
2023-05-25T07:23:38.423Z,99474.45
2023-05-25T07:26:06.417Z,99476.56
2023-05-25T07:28:34.153Z,99477.66
2023-05-25T07:31:01.778Z,99473.59
2023-05-25T07:33:29.446Z,99481.05
2023-05-25T07:35:56.945Z,99477.99
2023-05-25T07:38:24.520Z,99482.35
2023-05-25T07:40:52.724Z,99477.50
2023-05-25T07:43:21.102Z,99475.98
2023-05-25T07:45:48.623Z,99473.27
2023-05-25T07:48:16.360Z,99477.67
2023-05-25T07:50:44.010Z,99478.66
2023-05-25T07:53:11.496Z,99482.86
2023-05-25T07:55:39.070Z,99485.68
2023-05-25T07:58:07.817Z,99477.46
2023-05-25T08:00:35.765Z,99477.56
2023-05-25T08:03:03.506Z,99481.05
2023-05-25T08:05:31.231Z,99482.35
2023-05-25T08:07:59.132Z,99478.30
2023-05-25T08:10:32.572Z,99468.70
2023-05-25T08:13:00.209Z,99470.94
2023-05-25T08:15:29.143Z,99471.84
2023-05-25T08:17:56.897Z,99467.07
2023-05-25T08:20:27.393Z,99463.59
2023-05-25T08:22:54.917Z,99464.77
2023-05-25T08:25:22.424Z,99468.74
2023-05-25T08:27:49.984Z,99470.37
2023-05-25T08:30:17.444Z,99471.96
2023-05-25T08:32:45.474Z,99463.92
2023-05-25T08:35:16.846Z,99458.64
2023-05-25T08:37:45.306Z,99465.03
2023-05-25T08:40:17.169Z,99469.64
2023-05-25T08:42:45.374Z,99471.69
2023-05-25T08:45:26.482Z,99467.59
2023-05-25T08:48:02.736Z,99473.14
2023-05-25T08:50:50.780Z,99474.91
2023-05-25T08:53:18.326Z,99482.98
2023-05-25T08:55:46.352Z,99485.50
2023-05-25T08:58:21.267Z,99483.92
2023-05-25T09:00:57.572Z,99470.26
2023-05-25T09:03:25.620Z,99467.21
2023-05-25T09:05:53.284Z,99471.94
2023-05-25T09:08:20.805Z,99474.30
2023-05-25T09:10:48.213Z,99472.69
2023-05-25T09:15:46.408Z,99463.27
2023-05-25T09:18:14.147Z,99469.20
2023-05-25T09:20:44.258Z,99471.63
2023-05-25T09:23:13.735Z,99469.75
2023-05-25T09:25:41.375Z,99472.11
2023-05-25T09:28:25.329Z,99473.23
2023-05-25T09:30:54.954Z,99474.77
2023-05-25T09:33:44.203Z,99471.70
2023-05-25T09:36:15.467Z,99470.56
2023-05-25T09:38:43.218Z,99474.01
2023-05-25T09:41:10.900Z,99472.38
2023-05-25T09:43:41.858Z,99463.59
2023-05-25T09:46:14.514Z,99462.48
2023-05-25T09:48:43.386Z,99456.75
2023-05-25T09:51:11.689Z,99453.05
2023-05-25T09:53:39.281Z,99459.52
2023-05-25T09:56:07.061Z,99453.50
2023-05-25T09:58:35.291Z,99456.70
2023-05-25T10:01:04.805Z,99458.52
2023-05-25T10:03:33.401Z,99451.80
2023-05-25T10:06:01.258Z,99456.33
2023-05-25T10:08:29.172Z,99450.19
2023-05-25T10:10:58.272Z,99449.86
2023-05-25T10:13:25.889Z,99449.30
2023-05-25T10:15:54.768Z,99444.16
2023-05-25T10:18:27.559Z,99444.02
2023-05-25T10:21:04.774Z,99430.31
2023-05-25T10:23:42.142Z,99428.66
2023-05-25T10:26:09.923Z,99423.86
2023-05-25T10:28:38.329Z,99419.30
2023-05-25T10:31:07.465Z,99418.52
2023-05-25T10:33:35.175Z,99418.02
2023-05-25T10:36:10.784Z,99413.63
2023-05-25T10:38:40.140Z,99419.77
2023-05-25T10:41:09.658Z,99425.84
2023-05-25T10:43:57.126Z,99427.93
2023-05-25T10:46:24.660Z,99421.20
2023-05-25T10:48:52.916Z,99421.70
2023-05-25T10:51:20.888Z,99419.99
2023-05-25T10:54:02.171Z,99422.66
2023-05-25T10:56:30.519Z,99415.55
2023-05-25T10:58:58.197Z,99414.20
2023-05-25T11:01:25.998Z,99412.67
2023-05-25T11:03:55.988Z,99403.36
2023-05-25T11:07:05.537Z,99398.86
2023-05-25T11:09:33.090Z,99397.95
2023-05-25T11:12:02.125Z,99389.04
2023-05-25T11:14:30.784Z,99368.85
2023-05-25T11:17:12.197Z,99365.30
2023-05-25T11:19:43.617Z,99363.94
2023-05-25T11:22:15.393Z,99361.54
2023-05-25T11:24:47.543Z,99361.38
2023-05-25T11:27:15.054Z,99362.28
2023-05-25T11:29:42.482Z,99364.81
2023-05-25T11:32:14.506Z,99363.80
2023-05-25T11:34:46.823Z,99354.04
2023-05-25T11:37:21.419Z,99358.41
2023-05-25T11:39:50.197Z,99353.00
2023-05-25T11:42:23.327Z,99352.69
2023-05-25T11:44:51.464Z,99347.99
2023-05-25T11:47:23.423Z,99354.88
2023-05-25T11:49:51.464Z,99350.64
2023-05-25T11:52:20.445Z,99346.86
2023-05-25T11:54:48.228Z,99346.20
2023-05-25T11:57:24.994Z,99341.09
2023-05-25T11:59:54.545Z,99341.85
2023-05-25T12:02:22.290Z,99338.33
2023-05-25T12:05:00.213Z,99354.05
2023-05-25T12:07:33.934Z,99356.92
2023-05-25T12:10:19.587Z,99354.16
2023-05-25T12:12:51.173Z,99345.05
2023-05-25T12:15:22.086Z,99341.73
2023-05-25T12:17:51.477Z,99338.73
2023-05-25T12:20:19.289Z,99334.14
2023-05-25T12:22:47.065Z,99325.91
2023-05-25T12:25:18.360Z,99330.98
2023-05-25T12:27:46.484Z,99328.07
2023-05-25T12:30:14.156Z,99327.90
2023-05-25T12:33:06.058Z,99324.64
2023-05-25T12:36:00.387Z,99317.38
2023-05-25T12:38:27.879Z,99318.29
2023-05-25T12:41:06.693Z,99320.02
2023-05-25T12:43:40.574Z,99321.72
2023-05-25T12:46:08.684Z,99328.84
2023-05-25T12:48:36.360Z,99341.02
2023-05-25T12:51:04.143Z,99337.89
2023-05-25T12:53:31.662Z,99337.61
2023-05-25T12:56:03.522Z,99325.45
2023-05-25T12:58:31.502Z,99321.30
2023-05-25T13:01:00.605Z,99320.77
2023-05-25T13:03:28.423Z,99317.30
2023-05-25T13:06:00.994Z,99314.61
2023-05-25T13:08:29.226Z,99312.63
2023-05-25T13:10:56.712Z,99305.23
2023-05-25T13:13:24.243Z,99308.23
2023-05-25T13:15:51.736Z,99321.34
2023-05-25T13:18:19.305Z,99317.44
2023-05-25T13:20:49.429Z,99314.91
2023-05-25T13:23:18.426Z,99314.25
2023-05-25T13:25:47.320Z,99314.41
2023-05-25T13:28:14.798Z,99307.55
2023-05-25T13:30:43.001Z,99309.17
2023-05-25T13:33:11.075Z,99310.97
2023-05-25T13:35:46.415Z,99303.75
2023-05-25T13:38:17.295Z,99302.85
2023-05-25T13:41:05.538Z,99298.22
2023-05-25T13:43:33.909Z,99293.95
2023-05-25T13:46:02.757Z,99284.24
2023-05-25T13:48:30.639Z,99288.22
2023-05-25T13:51:00.006Z,99294.45
2023-05-25T13:53:28.833Z,99286.58
2023-05-25T13:55:56.604Z,99288.56
2023-05-25T13:58:25.511Z,99291.73
2023-05-25T14:00:53.156Z,99293.86
2023-05-25T14:03:21.530Z,99296.62
2023-05-25T14:05:49.832Z,99299.68
2023-05-25T14:08:20.795Z,99302.21
2023-05-25T14:10:48.726Z,99300.65
2023-05-25T14:13:16.304Z,99300.41
2023-05-25T14:15:45.207Z,99301.80
2023-05-25T14:18:13.033Z,99295.49
2023-05-25T14:20:42.869Z,99295.31
2023-05-25T14:23:15.105Z,99289.53
2023-05-25T14:25:44.233Z,99287.56
2023-05-25T14:28:12.642Z,99286.12
2023-05-25T14:30:40.693Z,99281.52
2023-05-25T14:33:08.440Z,99275.77
2023-05-25T14:35:35.960Z,99285.74
2023-05-25T14:38:03.717Z,99286.10
2023-05-25T14:40:31.441Z,99289.06
2023-05-25T14:42:59.203Z,99285.86
2023-05-25T14:45:26.793Z,99285.55
2023-05-25T14:48:00.858Z,99286.74
2023-05-25T14:50:35.771Z,99282.20
2023-05-25T14:53:03.653Z,99282.02
2023-05-25T14:55:31.532Z,99290.35
2023-05-25T14:57:58.976Z,99287.95
2023-05-25T15:00:26.823Z,99288.15
2023-05-25T15:02:54.457Z,99291.16
2023-05-25T15:05:23.398Z,99290.04
2023-05-25T15:07:50.989Z,99290.39
2023-05-25T15:10:18.838Z,99295.88
2023-05-25T15:12:47.447Z,99292.59
2023-05-25T15:15:15.664Z,99291.51
2023-05-25T15:17:43.748Z,99290.08
2023-05-25T15:20:11.540Z,99285.27
2023-05-25T15:22:39.769Z,99287.36
2023-05-25T15:25:07.456Z,99288.05
2023-05-25T15:27:35.744Z,99295.79
2023-05-25T15:30:04.728Z,99296.62
2023-05-25T15:32:32.316Z,99295.48
2023-05-25T15:34:59.889Z,99294.90
2023-05-25T15:37:27.441Z,99295.96
2023-05-25T15:39:55.145Z,99296.76
2023-05-25T15:42:22.968Z,99297.07
2023-05-25T15:44:50.578Z,99300.09
2023-05-25T15:47:23.077Z,99291.98
2023-05-25T15:49:51.756Z,99293.36
2023-05-25T15:52:19.200Z,99294.38
2023-05-25T15:57:55.997Z,99295.83
2023-05-25T16:00:22.990Z,99295.46
2023-05-25T16:02:50.132Z,99294.79
2023-05-25T16:05:17.345Z,99294.05
2023-05-25T16:07:44.038Z,99298.55
2023-05-25T16:10:10.819Z,99301.66
2023-05-25T16:12:37.966Z,99305.31
2023-05-25T16:15:05.574Z,99305.20
2023-05-25T16:17:32.791Z,99307.52
2023-05-25T16:20:01.132Z,99305.40
2023-05-25T16:22:27.898Z,99310.00
2023-05-25T16:24:54.720Z,99313.62
2023-05-25T16:27:21.442Z,99314.70
2023-05-25T16:29:48.348Z,99310.59
2023-05-25T16:32:15.196Z,99310.04
2023-05-25T16:34:42.245Z,99311.44
2023-05-25T16:37:09.255Z,99320.28
2023-05-25T16:39:36.215Z,99313.85
2023-05-25T16:42:04.544Z,99305.59
2023-05-25T16:44:31.405Z,99303.34
2023-05-25T16:46:58.198Z,99306.77
2023-05-25T16:49:25.018Z,99304.95
2023-05-25T16:51:51.969Z,99306.14
2023-05-25T16:54:21.046Z,99305.75
2023-05-25T16:56:47.801Z,99303.80
2023-05-25T16:59:14.537Z,99304.75
2023-05-25T17:01:41.681Z,99298.83
2023-05-25T17:04:09.942Z,99297.21
2023-05-25T17:06:38.695Z,99296.52
2023-05-25T17:09:05.365Z,99304.88
2023-05-25T17:11:33.195Z,99312.09
2023-05-25T17:13:59.886Z,99313.04
2023-05-25T17:16:26.658Z,99318.73
2023-05-25T17:18:53.282Z,99324.77
2023-05-25T17:21:20.180Z,99325.59
2023-05-25T17:23:48.250Z,99332.33
2023-05-25T17:26:14.994Z,99337.72
2023-05-25T17:28:42.370Z,99343.37
2023-05-25T17:31:09.659Z,99361.41
2023-05-25T17:33:38.178Z,99355.46
2023-05-25T17:36:05.559Z,99353.48
2023-05-25T17:38:34.457Z,99361.57
2023-05-25T17:41:03.557Z,99365.58
2023-05-25T17:43:31.407Z,99347.75
2023-05-25T17:45:58.804Z,99348.38
2023-05-25T17:48:25.445Z,99357.03
2023-05-25T17:50:52.498Z,99382.15
2023-05-25T17:53:19.711Z,99374.23
2023-05-25T17:55:46.591Z,99363.63
2023-05-25T17:58:14.237Z,99362.22
2023-05-25T18:00:41.151Z,99365.46
2023-05-25T18:03:08.149Z,99399.30
2023-05-25T18:05:35.569Z,99412.29
2023-05-25T18:08:03.822Z,99411.27
2023-05-25T18:10:30.781Z,99409.83
2023-05-25T18:12:59.376Z,99415.36
2023-05-25T18:15:27.170Z,99408.54
2023-05-25T18:17:54.272Z,99409.75
2023-05-25T18:20:21.178Z,99403.64
2023-05-25T18:22:48.065Z,99405.02
2023-05-25T18:25:16.344Z,99413.58
2023-05-25T18:27:43.983Z,99431.60
2023-05-25T18:30:11.340Z,99448.13
2023-05-25T18:32:38.212Z,99468.96
2023-05-25T18:35:06.093Z,99471.52
2023-05-25T18:37:35.054Z,99440.70
2023-05-25T18:40:02.794Z,99435.77
2023-05-25T18:42:30.206Z,99427.51
2023-05-25T18:44:57.003Z,99419.79
2023-05-25T18:47:23.797Z,99417.61
2023-05-25T18:49:51.299Z,99416.66
2023-05-25T18:52:18.468Z,99416.66
2023-05-25T18:54:46.012Z,99408.73
2023-05-25T18:57:12.858Z,99410.99
2023-05-25T18:59:41.365Z,99410.11
2023-05-25T19:02:08.280Z,99401.27
2023-05-25T19:04:36.240Z,99382.75
2023-05-25T19:07:03.019Z,99374.79
2023-05-25T19:09:30.638Z,99368.99
2023-05-25T19:11:57.617Z,99373.85
2023-05-25T19:14:24.436Z,99372.41
2023-05-25T19:16:51.463Z,99373.04
2023-05-25T19:19:18.916Z,99377.61
2023-05-25T19:21:45.579Z,99379.83
2023-05-25T19:24:12.461Z,99381.92
2023-05-25T19:26:39.251Z,99381.57
2023-05-25T19:29:06.601Z,99372.73
2023-05-25T19:31:34.611Z,99373.67
2023-05-25T19:34:01.838Z,99374.89
2023-05-25T19:36:28.800Z,99370.77
2023-05-25T19:38:55.586Z,99370.56
2023-05-25T19:41:22.523Z,99374.70
2023-05-25T19:43:49.130Z,99366.05
2023-05-25T19:46:15.981Z,99367.05
2023-05-25T19:48:42.864Z,99370.28
2023-05-25T19:51:09.825Z,99373.30
2023-05-25T19:53:36.877Z,99374.39
2023-05-25T19:56:03.966Z,99372.82
2023-05-25T19:58:32.451Z,99373.11
2023-05-25T20:00:59.257Z,99360.02
2023-05-25T20:03:26.336Z,99358.41
2023-05-25T20:05:53.428Z,99355.86
2023-05-25T20:08:20.274Z,99356.64
2023-05-25T20:10:48.262Z,99355.68
2023-05-25T20:13:15.492Z,99369.69
2023-05-25T20:15:43.532Z,99374.69
2023-05-25T20:18:10.829Z,99375.35
2023-05-25T20:20:37.662Z,99372.17
2023-05-25T20:23:04.569Z,99360.58
2023-05-25T20:25:34.329Z,99361.23
2023-05-25T20:28:01.158Z,99359.48
2023-05-25T20:30:28.592Z,99355.56
2023-05-25T20:32:55.804Z,99350.54
2023-05-25T20:35:22.717Z,99345.06
2023-05-25T20:37:49.651Z,99345.83
2023-05-25T20:40:16.845Z,99347.02
2023-05-25T20:42:43.766Z,99345.84
2023-05-25T20:45:10.686Z,99353.17
2023-05-25T20:47:40.021Z,99351.11
2023-05-25T20:50:07.660Z,99352.55
2023-05-25T20:52:35.712Z,99350.14
2023-05-25T20:55:02.884Z,99355.05
2023-05-25T20:57:30.106Z,99358.31
2023-05-25T20:59:59.240Z,99357.59
2023-05-25T21:02:28.016Z,99361.92
2023-05-25T21:04:54.961Z,99360.21
2023-05-25T21:07:21.599Z,99356.28
2023-05-25T21:09:48.436Z,99356.02
2023-05-25T21:12:15.598Z,99358.56
2023-05-25T21:14:42.346Z,99353.88
2023-05-25T21:17:10.121Z,99356.88
2023-05-25T21:19:37.210Z,99353.05
2023-05-25T21:22:04.090Z,99351.81
2023-05-25T21:24:32.451Z,99349.14
2023-05-25T21:27:00.931Z,99349.88
2023-05-25T21:29:27.793Z,99350.84
2023-05-25T21:31:54.555Z,99352.82
2023-05-25T21:34:21.255Z,99349.59
2023-05-25T21:36:49.630Z,99357.77
2023-05-25T21:39:16.420Z,99359.14
2023-05-25T21:41:44.238Z,99358.71
2023-05-25T21:44:11.390Z,99358.61
2023-05-25T21:46:38.567Z,99360.63
2023-05-25T21:49:05.411Z,99359.15
2023-05-25T21:51:35.213Z,99360.26
2023-05-25T21:54:02.530Z,99356.20
2023-05-25T21:56:29.545Z,99352.50
2023-05-25T21:58:56.368Z,99350.73
2023-05-25T22:01:23.384Z,99353.91
2023-05-25T22:03:50.616Z,99353.77
2023-05-25T22:06:17.669Z,99350.67
2023-05-25T22:08:44.458Z,99343.52
2023-05-25T22:11:11.279Z,99341.04
2023-05-25T22:13:38.203Z,99343.31
2023-05-25T22:16:05.652Z,99342.41
2023-05-25T22:18:32.972Z,99344.02
2023-05-25T22:20:59.922Z,99343.60
2023-05-25T22:23:27.019Z,99341.29
2023-05-25T22:25:54.693Z,99351.29
2023-05-25T22:28:22.678Z,99357.53
2023-05-25T22:30:49.460Z,99345.00
2023-05-25T22:33:17.065Z,99355.03
2023-05-25T22:35:43.791Z,99355.27
2023-05-25T22:38:10.710Z,99359.10
2023-05-25T22:40:37.879Z,99360.63
2023-05-25T22:43:12.194Z,99359.53
2023-05-25T22:45:39.316Z,99347.03
2023-05-25T22:48:06.828Z,99345.56
2023-05-25T22:50:33.892Z,99350.90
2023-05-25T22:53:00.997Z,99350.35
2023-05-25T22:55:29.241Z,99349.71
2023-05-25T22:57:56.078Z,99350.63
2023-05-25T23:00:23.039Z,99347.73
2023-05-25T23:02:49.874Z,99349.14
2023-05-25T23:05:17.017Z,99355.55
2023-05-25T23:07:44.597Z,99361.85
2023-05-25T23:10:11.721Z,99357.61
2023-05-25T23:12:38.610Z,99349.14
2023-05-25T23:15:08.922Z,99349.52
2023-05-25T23:17:36.014Z,99349.45
2023-05-25T23:20:05.996Z,99346.95
2023-05-25T23:22:33.666Z,99349.79
2023-05-25T23:25:00.447Z,99351.48
2023-05-25T23:27:47.400Z,99350.30
2023-05-25T23:30:15.000Z,99347.48
2023-05-25T23:32:42.133Z,99349.21
2023-05-25T23:35:09.741Z,99349.98
2023-05-25T23:37:37.029Z,99347.17
2023-05-25T23:40:04.859Z,99357.10
2023-05-25T23:42:42.157Z,99361.09
2023-05-25T23:45:09.083Z,99360.79
2023-05-25T23:47:35.996Z,99362.43
2023-05-25T23:50:03.153Z,99359.35
2023-05-25T23:52:30.063Z,99363.48
2023-05-25T23:54:57.079Z,99350.79
2023-05-25T23:57:23.861Z,99348.39
2023-05-25T23:59:50.800Z,99349.73
